createdAt,value
2023-04-27T00:01:42.719Z,16.20
2023-04-27T00:04:09.398Z,16.32
2023-04-27T00:06:36.160Z,16.43
2023-04-27T00:09:02.709Z,16.51
2023-04-27T00:11:29.200Z,16.47
2023-04-27T00:13:56.416Z,16.38
2023-04-27T00:16:23.047Z,16.39
2023-04-27T00:18:49.591Z,16.38
2023-04-27T00:21:16.221Z,16.37
2023-04-27T00:23:42.712Z,16.21
2023-04-27T00:26:11.868Z,16.31
2023-04-27T00:28:38.468Z,16.25
2023-04-27T00:31:05.062Z,16.24
2023-04-27T00:33:31.867Z,16.08
2023-04-27T00:36:01.783Z,16.02
2023-04-27T00:38:29.155Z,15.97
2023-04-27T00:41:07.048Z,16.07
2023-04-27T00:43:42.636Z,16.13
2023-04-27T00:46:10.143Z,16.17
2023-04-27T00:48:37.620Z,16.19
2023-04-27T00:51:04.944Z,16.20
2023-04-27T00:53:32.251Z,16.21
2023-04-27T00:55:58.802Z,16.20
2023-04-27T00:58:25.369Z,16.16
2023-04-27T01:00:52.005Z,16.00
2023-04-27T01:03:18.791Z,16.01
2023-04-27T01:05:45.620Z,16.04
2023-04-27T01:08:12.122Z,15.90
2023-04-27T01:10:39.034Z,15.90
2023-04-27T01:13:05.668Z,15.86
2023-04-27T01:15:32.213Z,15.88
2023-04-27T01:18:00.274Z,15.81
2023-04-27T01:20:27.287Z,15.76
2023-04-27T01:22:53.882Z,15.76
2023-04-27T01:25:20.459Z,15.73
2023-04-27T01:27:46.951Z,15.68
2023-04-27T01:30:13.724Z,15.60
2023-04-27T01:32:40.277Z,15.56
2023-04-27T01:35:07.748Z,15.52
2023-04-27T01:37:34.823Z,15.48
2023-04-27T01:40:01.495Z,15.54
2023-04-27T01:42:27.999Z,15.48
2023-04-27T01:44:54.601Z,15.27
2023-04-27T01:47:21.122Z,15.23
2023-04-27T01:49:47.687Z,15.22
2023-04-27T01:52:14.152Z,15.23
2023-04-27T01:54:40.659Z,15.18
2023-04-27T01:57:07.190Z,15.14
2023-04-27T01:59:33.687Z,15.13
2023-04-27T02:02:00.272Z,15.20
2023-04-27T02:04:27.058Z,15.18
2023-04-27T02:06:53.705Z,15.15
2023-04-27T02:09:20.204Z,15.12
2023-04-27T02:11:46.778Z,15.04
2023-04-27T02:14:16.152Z,14.89
2023-04-27T02:16:42.985Z,14.87
2023-04-27T02:19:09.474Z,14.84
2023-04-27T02:21:35.972Z,14.67
2023-04-27T02:24:02.531Z,14.54
2023-04-27T02:26:28.997Z,14.50
2023-04-27T02:28:55.958Z,14.45
2023-04-27T02:31:22.866Z,14.49
2023-04-27T02:33:49.364Z,14.51
2023-04-27T02:36:15.974Z,14.52
2023-04-27T02:38:42.497Z,14.48
2023-04-27T02:41:09.007Z,14.56
2023-04-27T02:43:35.550Z,14.52
2023-04-27T02:46:03.567Z,14.58
2023-04-27T02:48:33.351Z,14.58
2023-04-27T02:51:03.399Z,14.58
2023-04-27T02:53:29.950Z,14.52
2023-04-27T02:55:56.457Z,14.55
2023-04-27T02:58:22.947Z,14.56
2023-04-27T03:00:54.375Z,14.63
2023-04-27T03:03:21.460Z,14.61
2023-04-27T03:05:48.021Z,14.62
2023-04-27T03:08:14.747Z,14.62
2023-04-27T03:10:41.326Z,14.53
2023-04-27T03:13:07.849Z,14.48
2023-04-27T03:15:35.000Z,14.52
2023-04-27T03:18:01.582Z,14.50
2023-04-27T03:20:28.178Z,14.43
2023-04-27T03:22:54.706Z,14.43
2023-04-27T03:25:21.269Z,14.38
2023-04-27T03:27:47.799Z,14.43
2023-04-27T03:30:14.685Z,14.31
2023-04-27T03:32:41.181Z,14.31
2023-04-27T03:35:08.169Z,14.31
2023-04-27T03:37:34.661Z,14.26
2023-04-27T03:40:01.186Z,14.19
2023-04-27T03:42:27.698Z,14.17
2023-04-27T03:44:54.249Z,14.06
2023-04-27T03:47:20.767Z,14.01
2023-04-27T03:49:47.316Z,14.08
2023-04-27T03:52:13.892Z,14.06
2023-04-27T03:54:40.483Z,13.98
2023-04-27T03:57:07.032Z,13.93
2023-04-27T03:59:33.587Z,13.95
2023-04-27T04:02:01.424Z,13.98
2023-04-27T04:04:28.309Z,13.97
2023-04-27T04:06:54.930Z,13.78
2023-04-27T04:09:23.730Z,13.76
2023-04-27T04:11:51.920Z,13.80
2023-04-27T04:14:18.689Z,13.79
2023-04-27T04:16:45.226Z,13.63
2023-04-27T04:19:11.838Z,13.68
2023-04-27T04:21:38.484Z,13.73
2023-04-27T04:24:05.447Z,13.82
2023-04-27T04:26:32.017Z,13.83
2023-04-27T04:28:58.514Z,13.87
2023-04-27T04:31:25.099Z,13.80
2023-04-27T04:33:51.585Z,13.83
2023-04-27T04:36:18.077Z,13.81
2023-04-27T04:38:44.616Z,13.64
2023-04-27T04:41:11.095Z,13.68
2023-04-27T04:43:37.560Z,13.74
2023-04-27T04:46:04.118Z,13.71
2023-04-27T04:48:30.657Z,13.74
2023-04-27T04:50:57.213Z,13.54
2023-04-27T04:53:23.777Z,13.56
2023-04-27T04:55:50.287Z,13.62
2023-04-27T04:58:16.760Z,13.65
2023-04-27T05:00:43.299Z,13.66
2023-04-27T05:03:09.890Z,13.71
2023-04-27T05:05:36.536Z,13.69
2023-04-27T05:08:03.100Z,13.79
2023-04-27T05:10:29.734Z,13.81
2023-04-27T05:12:56.254Z,13.91
2023-04-27T05:15:22.732Z,14.01
2023-04-27T05:17:49.269Z,14.07
2023-04-27T05:20:16.114Z,14.15
2023-04-27T05:22:42.706Z,14.18
2023-04-27T05:25:09.353Z,14.26
2023-04-27T05:27:35.862Z,14.24
2023-04-27T05:30:02.397Z,14.41
2023-04-27T05:32:28.916Z,14.45
2023-04-27T05:34:55.415Z,14.53
2023-04-27T05:37:21.905Z,14.61
2023-04-27T05:39:48.359Z,14.65
2023-04-27T05:42:14.882Z,14.75
2023-04-27T05:44:41.356Z,14.83
2023-04-27T05:47:07.853Z,14.91
2023-04-27T05:49:34.360Z,15.01
2023-04-27T05:52:01.680Z,15.11
2023-04-27T05:54:28.181Z,15.20
2023-04-27T05:56:54.713Z,15.29
2023-04-27T05:59:21.250Z,15.47
2023-04-27T06:01:47.916Z,15.50
2023-04-27T06:04:14.891Z,15.59
2023-04-27T06:06:41.715Z,15.61
2023-04-27T06:09:08.354Z,15.79
2023-04-27T06:11:35.076Z,15.79
2023-04-27T06:14:04.189Z,15.91
2023-04-27T06:16:30.826Z,16.08
2023-04-27T06:18:57.352Z,16.20
2023-04-27T06:21:24.051Z,16.23
2023-04-27T06:23:52.927Z,16.29
2023-04-27T06:26:19.439Z,16.42
2023-04-27T06:28:45.939Z,16.55
2023-04-27T06:31:12.481Z,16.61
2023-04-27T06:33:38.992Z,16.80
2023-04-27T06:36:05.750Z,16.91
2023-04-27T06:38:32.240Z,17.07
2023-04-27T06:40:58.766Z,16.84
2023-04-27T06:43:25.740Z,17.04
2023-04-27T06:45:52.490Z,17.04
2023-04-27T06:48:19.103Z,17.23
2023-04-27T06:50:45.652Z,17.40
2023-04-27T06:53:12.347Z,17.52
2023-04-27T06:55:41.031Z,17.63
2023-04-27T06:58:09.641Z,17.71
2023-04-27T07:00:36.240Z,17.74
2023-04-27T07:03:02.800Z,18.12
2023-04-27T07:05:29.438Z,18.24
2023-04-27T07:07:56.035Z,18.29
2023-04-27T07:10:22.558Z,18.32
2023-04-27T07:12:49.687Z,18.43
2023-04-27T07:15:16.198Z,18.50
2023-04-27T07:17:42.804Z,18.49
2023-04-27T07:20:09.405Z,18.45
2023-04-27T07:22:35.907Z,18.56
2023-04-27T07:25:02.384Z,18.36
2023-04-27T07:27:28.881Z,18.33
2023-04-27T07:29:58.509Z,18.22
2023-04-27T07:32:25.002Z,18.43
2023-04-27T07:34:54.197Z,18.49
2023-04-27T07:37:22.070Z,18.40
2023-04-27T07:39:50.346Z,18.43
2023-04-27T07:42:16.851Z,18.56
2023-04-27T07:44:43.327Z,18.67
2023-04-27T07:47:10.054Z,18.53
2023-04-27T07:49:37.033Z,18.45
2023-04-27T07:52:04.139Z,18.37
2023-04-27T07:54:30.604Z,18.17
2023-04-27T07:56:57.093Z,18.22
2023-04-27T07:59:23.562Z,18.01
2023-04-27T08:01:50.138Z,17.93
2023-04-27T08:04:17.154Z,18.15
2023-04-27T08:06:44.624Z,17.81
2023-04-27T08:09:11.628Z,17.84
2023-04-27T08:11:38.377Z,18.11
2023-04-27T08:14:04.920Z,18.13
2023-04-27T08:16:31.543Z,18.10
2023-04-27T08:18:58.643Z,18.28
2023-04-27T08:21:27.077Z,18.42
2023-04-27T08:23:53.684Z,18.28
2023-04-27T08:26:20.138Z,18.39
2023-04-27T08:28:46.605Z,18.42
2023-04-27T08:31:13.198Z,18.64
2023-04-27T08:33:39.676Z,18.65
2023-04-27T08:36:06.347Z,18.76
2023-04-27T08:38:34.643Z,18.75
2023-04-27T08:41:14.111Z,18.76
2023-04-27T08:43:44.763Z,19.08
2023-04-27T08:46:11.547Z,19.03
2023-04-27T08:48:38.039Z,19.03
2023-04-27T08:51:10.759Z,19.13
2023-04-27T08:53:37.345Z,19.04
2023-04-27T08:56:04.899Z,19.12
2023-04-27T08:58:38.795Z,19.14
2023-04-27T09:01:06.779Z,19.21
2023-04-27T09:03:34.741Z,19.25
2023-04-27T09:06:05.801Z,19.19
2023-04-27T09:08:45.744Z,19.43
2023-04-27T09:11:27.694Z,19.21
2023-04-27T09:13:54.244Z,19.25
2023-04-27T09:16:27.616Z,19.47
2023-04-27T09:18:54.665Z,19.54
2023-04-27T09:21:30.209Z,19.39
2023-04-27T09:23:57.293Z,19.55
2023-04-27T09:26:26.241Z,19.45
2023-04-27T09:28:54.722Z,19.40
2023-04-27T09:31:21.306Z,19.46
2023-04-27T09:33:55.246Z,19.64
2023-04-27T09:36:23.057Z,19.76
2023-04-27T09:38:50.639Z,19.62
2023-04-27T09:41:17.816Z,19.56
2023-04-27T09:43:45.046Z,19.58
2023-04-27T09:46:13.450Z,19.67
2023-04-27T09:48:42.984Z,19.87
2023-04-27T09:51:09.487Z,19.90
2023-04-27T09:53:43.919Z,19.87
2023-04-27T09:56:26.202Z,19.76
2023-04-27T09:59:10.402Z,19.56
2023-04-27T10:01:47.221Z,19.98
2023-04-27T10:04:29.318Z,19.80
2023-04-27T10:07:01.471Z,19.84
2023-04-27T10:09:36.849Z,19.91
2023-04-27T10:12:26.470Z,19.94
2023-04-27T10:14:58.519Z,19.95
2023-04-27T10:17:36.479Z,19.97
2023-04-27T10:20:06.813Z,19.94
2023-04-27T10:22:41.809Z,19.58
2023-04-27T10:25:20.956Z,19.49
2023-04-27T10:27:59.921Z,19.61
2023-04-27T10:30:32.465Z,19.80
2023-04-27T10:33:04.390Z,19.62
2023-04-27T10:35:39.758Z,19.68
2023-04-27T10:38:07.457Z,19.48
2023-04-27T10:40:35.454Z,19.58
2023-04-27T10:43:10.241Z,19.42
2023-04-27T10:45:37.247Z,19.54
2023-04-27T10:48:05.132Z,19.75
2023-04-27T10:50:31.811Z,19.53
2023-04-27T10:53:03.829Z,19.45
2023-04-27T10:55:30.891Z,19.82
2023-04-27T10:57:58.074Z,19.90
2023-04-27T11:00:30.813Z,19.99
2023-04-27T11:03:09.790Z,20.03
2023-04-27T11:05:36.436Z,20.03
2023-04-27T11:08:14.019Z,19.90
2023-04-27T11:10:47.302Z,19.62
2023-04-27T11:13:22.014Z,19.71
2023-04-27T11:15:52.809Z,19.85
2023-04-27T11:18:21.435Z,19.95
2023-04-27T11:20:51.183Z,20.10
2023-04-27T11:23:29.027Z,20.21
2023-04-27T11:25:56.699Z,20.42
2023-04-27T11:28:24.219Z,20.76
2023-04-27T11:30:58.929Z,20.39
2023-04-27T11:33:26.393Z,20.25
2023-04-27T11:35:53.541Z,20.58
2023-04-27T11:38:20.767Z,20.84
2023-04-27T11:40:58.625Z,21.07
2023-04-27T11:43:28.368Z,21.09
2023-04-27T11:45:55.769Z,21.19
2023-04-27T11:48:27.383Z,21.34
2023-04-27T11:50:53.866Z,21.60
2023-04-27T11:53:34.896Z,21.45
2023-04-27T11:56:06.452Z,21.41
2023-04-27T11:58:37.842Z,21.23
2023-04-27T12:01:05.601Z,21.50
2023-04-27T12:03:32.743Z,21.69
2023-04-27T12:06:11.708Z,21.68
2023-04-27T12:08:45.872Z,21.73
2023-04-27T12:11:12.420Z,22.06
2023-04-27T12:13:39.069Z,22.06
2023-04-27T12:16:05.919Z,22.44
2023-04-27T12:18:41.350Z,22.62
2023-04-27T12:23:34.874Z,22.80
2023-04-27T12:26:01.537Z,22.72
2023-04-27T12:28:28.057Z,22.76
2023-04-27T12:30:54.552Z,22.85
2023-04-27T12:33:21.106Z,22.96
2023-04-27T12:35:47.619Z,22.89
2023-04-27T12:38:14.168Z,22.84
2023-04-27T12:40:43.505Z,23.02
2023-04-27T12:43:09.994Z,23.00
2023-04-27T12:45:36.494Z,23.06
2023-04-27T12:48:04.145Z,23.12
2023-04-27T12:50:34.793Z,22.80
2023-04-27T12:53:02.082Z,22.57
2023-04-27T12:55:33.196Z,22.85
2023-04-27T12:58:00.657Z,23.29
2023-04-27T13:00:27.194Z,23.50
2023-04-27T13:02:53.894Z,23.62
2023-04-27T13:05:21.191Z,23.79
2023-04-27T13:07:48.211Z,24.10
2023-04-27T13:10:14.808Z,24.30
2023-04-27T13:12:41.339Z,24.46
2023-04-27T13:15:08.708Z,24.65
2023-04-27T13:17:35.256Z,24.60
2023-04-27T13:20:01.736Z,25.19
2023-04-27T13:22:28.398Z,25.31
2023-04-27T13:24:54.891Z,25.52
2023-04-27T13:27:21.392Z,25.42
2023-04-27T13:29:47.900Z,25.77
2023-04-27T13:32:14.362Z,25.98
2023-04-27T13:34:40.892Z,26.49
2023-04-27T13:37:09.808Z,26.97
2023-04-27T13:39:36.278Z,26.87
2023-04-27T13:42:03.005Z,26.98
2023-04-27T13:44:29.493Z,27.13
2023-04-27T13:46:57.289Z,27.16
2023-04-27T13:49:23.997Z,27.11
2023-04-27T13:51:50.638Z,27.01
2023-04-27T13:54:17.176Z,27.04
2023-04-27T13:56:43.635Z,27.22
2023-04-27T13:59:10.084Z,26.87
2023-04-27T14:01:36.599Z,27.10
2023-04-27T14:04:03.410Z,27.34
2023-04-27T14:06:32.677Z,27.45
2023-04-27T14:09:02.853Z,27.76
2023-04-27T14:11:29.989Z,27.89
2023-04-27T14:13:56.462Z,27.53
2023-04-27T14:16:22.971Z,27.85
2023-04-27T14:18:49.476Z,27.76
2023-04-27T14:21:15.949Z,27.63
2023-04-27T14:23:42.517Z,27.69
2023-04-27T14:26:09.004Z,28.03
2023-04-27T14:28:35.514Z,28.24
2023-04-27T14:31:02.030Z,28.46
2023-04-27T14:33:28.504Z,28.20
2023-04-27T14:35:55.018Z,28.48
2023-04-27T14:38:22.121Z,28.01
2023-04-27T14:40:48.549Z,28.30
2023-04-27T14:43:15.032Z,27.93
2023-04-27T14:45:52.404Z,27.85
2023-04-27T14:48:22.135Z,27.85
2023-04-27T14:50:48.814Z,27.65
2023-04-27T14:53:15.362Z,27.99
2023-04-27T14:55:41.859Z,28.15
2023-04-27T14:58:08.671Z,27.15
2023-04-27T15:00:35.188Z,27.31
2023-04-27T15:03:01.814Z,27.03
2023-04-27T15:05:28.400Z,27.22
2023-04-27T15:07:55.184Z,26.70
2023-04-27T15:10:21.641Z,27.04
2023-04-27T15:12:48.117Z,26.98
2023-04-27T15:15:14.670Z,27.31
2023-04-27T15:17:41.357Z,27.63
2023-04-27T15:20:08.324Z,28.11
2023-04-27T15:22:34.828Z,28.24
2023-04-27T15:25:01.344Z,28.26
2023-04-27T15:27:27.895Z,28.55
2023-04-27T15:29:54.358Z,28.57
2023-04-27T15:32:20.898Z,28.50
2023-04-27T15:34:47.460Z,28.48
2023-04-27T15:37:13.920Z,28.42
2023-04-27T15:39:40.453Z,28.73
2023-04-27T15:42:06.921Z,29.19
2023-04-27T15:44:33.426Z,29.45
2023-04-27T15:46:59.991Z,29.65
2023-04-27T15:49:27.058Z,29.93
2023-04-27T15:51:53.509Z,29.97
2023-04-27T15:54:19.997Z,30.18
2023-04-27T15:56:46.537Z,30.25
2023-04-27T15:59:13.390Z,30.50
2023-04-27T16:01:40.224Z,29.96
2023-04-27T16:04:07.105Z,29.83
2023-04-27T16:06:35.199Z,29.98
2023-04-27T16:09:02.147Z,30.03
2023-04-27T16:11:30.152Z,30.20
2023-04-27T16:13:57.210Z,30.05
2023-04-27T16:16:23.761Z,29.41
2023-04-27T16:18:50.266Z,29.30
2023-04-27T16:21:16.744Z,29.36
2023-04-27T16:23:43.231Z,29.52
2023-04-27T16:26:09.677Z,29.88
2023-04-27T16:28:36.209Z,30.04
2023-04-27T16:31:02.909Z,30.40
2023-04-27T16:33:29.573Z,30.66
2023-04-27T16:35:56.065Z,30.51
2023-04-27T16:38:22.557Z,30.80
2023-04-27T16:40:49.214Z,30.17
2023-04-27T16:43:15.707Z,29.96
2023-04-27T16:45:42.253Z,29.95
2023-04-27T16:48:08.898Z,30.19
2023-04-27T16:50:35.645Z,29.55
2023-04-27T16:53:10.649Z,29.20
2023-04-27T16:55:37.138Z,28.89
2023-04-27T16:58:03.651Z,28.37
2023-04-27T17:00:30.289Z,28.51
2023-04-27T17:02:56.807Z,28.69
2023-04-27T17:05:23.389Z,28.60
2023-04-27T17:07:49.877Z,28.98
2023-04-27T17:10:16.369Z,29.24
2023-04-27T17:12:42.847Z,29.40
2023-04-27T17:15:10.821Z,29.78
2023-04-27T17:17:37.500Z,29.78
2023-04-27T17:20:04.621Z,29.67
2023-04-27T17:22:31.379Z,29.43
2023-04-27T17:24:57.869Z,29.14
2023-04-27T17:27:24.352Z,28.80
2023-04-27T17:29:51.773Z,28.57
2023-04-27T17:32:18.374Z,28.44
2023-04-27T17:34:44.867Z,28.17
2023-04-27T17:37:11.378Z,27.93
2023-04-27T17:39:37.851Z,27.79
2023-04-27T17:42:04.370Z,27.41
2023-04-27T17:44:30.865Z,27.22
2023-04-27T17:46:57.439Z,26.76
2023-04-27T17:49:24.007Z,26.41
2023-04-27T17:51:50.486Z,26.15
2023-04-27T17:54:16.996Z,25.85
2023-04-27T17:56:44.330Z,25.61
2023-04-27T17:59:10.872Z,25.49
2023-04-27T18:01:37.348Z,25.40
2023-04-27T18:04:04.974Z,25.18
2023-04-27T18:06:31.576Z,25.04
2023-04-27T18:08:58.097Z,24.89
2023-04-27T18:11:24.632Z,24.73
2023-04-27T18:13:51.119Z,24.61
2023-04-27T18:16:17.820Z,24.46
2023-04-27T18:18:44.343Z,24.34
2023-04-27T18:21:10.893Z,24.20
2023-04-27T18:23:38.045Z,24.15
2023-04-27T18:26:04.564Z,24.06
2023-04-27T18:28:31.079Z,23.94
2023-04-27T18:30:57.526Z,23.74
2023-04-27T18:33:24.029Z,23.68
2023-04-27T18:35:50.617Z,23.19
2023-04-27T18:38:17.093Z,23.44
2023-04-27T18:40:43.594Z,23.39
2023-04-27T18:43:10.197Z,23.38
2023-04-27T18:45:36.762Z,23.33
2023-04-27T18:48:03.431Z,23.30
2023-04-27T18:50:29.911Z,23.21
2023-04-27T18:52:56.643Z,23.22
2023-04-27T18:55:23.130Z,23.17
2023-04-27T18:57:49.610Z,23.12
2023-04-27T19:00:19.117Z,23.07
2023-04-27T19:02:45.673Z,22.99
2023-04-27T19:05:13.730Z,22.93
2023-04-27T19:07:40.782Z,22.89
2023-04-27T19:10:07.945Z,22.89
2023-04-27T19:12:34.488Z,22.85
2023-04-27T19:15:00.966Z,22.78
2023-04-27T19:17:27.663Z,22.71
2023-04-27T19:19:54.250Z,22.61
2023-04-27T19:22:20.791Z,22.54
2023-04-27T19:24:47.815Z,22.51
2023-04-27T19:27:14.344Z,22.37
2023-04-27T19:29:52.750Z,22.18
2023-04-27T19:32:20.096Z,22.19
2023-04-27T19:34:47.164Z,22.18
2023-04-27T19:37:13.976Z,22.23
2023-04-27T19:39:40.479Z,22.22
2023-04-27T19:42:07.011Z,22.16
2023-04-27T19:44:33.504Z,22.16
2023-04-27T19:46:59.989Z,22.15
2023-04-27T19:49:30.710Z,22.15
2023-04-27T19:51:57.168Z,22.13
2023-04-27T19:54:23.642Z,22.14
2023-04-27T19:56:50.118Z,22.11
2023-04-27T19:59:16.648Z,22.09
2023-04-27T20:01:43.230Z,21.98
2023-04-27T20:04:09.976Z,21.91
2023-04-27T20:06:36.739Z,21.91
2023-04-27T20:09:03.584Z,21.87
2023-04-27T20:11:30.085Z,21.88
2023-04-27T20:13:56.555Z,21.85
2023-04-27T20:16:23.125Z,21.85
2023-04-27T20:18:49.634Z,21.87
2023-04-27T20:21:16.127Z,21.89
2023-04-27T20:23:42.633Z,21.88
2023-04-27T20:26:09.156Z,21.80
2023-04-27T20:28:35.637Z,21.71
2023-04-27T20:31:02.118Z,21.71
2023-04-27T20:33:28.597Z,21.63
2023-04-27T20:35:58.751Z,21.64
2023-04-27T20:38:30.307Z,21.61
2023-04-27T20:40:56.889Z,21.54
2023-04-27T20:43:23.350Z,21.56
2023-04-27T20:45:49.996Z,21.49
2023-04-27T20:48:16.512Z,21.40
2023-04-27T20:50:43.007Z,21.37
2023-04-27T20:53:09.455Z,21.34
2023-04-27T20:55:35.957Z,21.31
2023-04-27T20:58:02.514Z,21.21
2023-04-27T21:00:28.976Z,21.20
2023-04-27T21:02:55.587Z,21.14
2023-04-27T21:05:22.177Z,21.19
2023-04-27T21:07:48.767Z,21.17
2023-04-27T21:10:15.326Z,20.93
2023-04-27T21:12:41.840Z,20.80
2023-04-27T21:15:08.826Z,20.76
2023-04-27T21:17:35.316Z,20.82
2023-04-27T21:20:02.150Z,20.63
2023-04-27T21:22:28.666Z,20.67
2023-04-27T21:24:55.152Z,20.72
2023-04-27T21:27:21.622Z,20.72
2023-04-27T21:29:48.104Z,20.72
2023-04-27T21:32:14.581Z,20.69
2023-04-27T21:34:41.055Z,20.47
2023-04-27T21:37:07.537Z,20.50
2023-04-27T21:39:33.999Z,20.44
2023-04-27T21:42:00.476Z,20.41
2023-04-27T21:44:26.947Z,20.41
2023-04-27T21:46:53.437Z,20.44
2023-04-27T21:49:19.931Z,20.40
2023-04-27T21:51:46.393Z,20.39
2023-04-27T21:54:12.957Z,20.37
2023-04-27T21:56:39.651Z,20.38
2023-04-27T21:59:06.108Z,20.34
2023-04-27T22:01:32.630Z,20.26
2023-04-27T22:03:59.243Z,20.29
2023-04-27T22:06:26.672Z,20.23
2023-04-27T22:08:53.913Z,20.26
2023-04-27T22:11:20.385Z,20.27
2023-04-27T22:13:46.839Z,20.24
2023-04-27T22:16:13.853Z,20.16
2023-04-27T22:18:40.639Z,20.15
2023-04-27T22:21:07.121Z,20.12
2023-04-27T22:23:33.744Z,20.11
2023-04-27T22:26:00.247Z,20.07
2023-04-27T22:28:26.726Z,20.07
2023-04-27T22:30:55.359Z,19.97
2023-04-27T22:33:21.960Z,19.99
2023-04-27T22:35:48.525Z,19.92
2023-04-27T22:38:15.312Z,19.91
2023-04-27T22:40:41.792Z,19.91
2023-04-27T22:43:08.294Z,19.88
2023-04-27T22:45:36.124Z,19.85
2023-04-27T22:48:04.818Z,19.71
2023-04-27T22:50:31.330Z,19.73
2023-04-27T22:52:57.830Z,19.73
2023-04-27T22:55:24.325Z,19.72
2023-04-27T22:57:50.783Z,19.70
2023-04-27T23:00:17.386Z,19.66
2023-04-27T23:02:44.108Z,19.71
2023-04-27T23:05:11.040Z,19.68
2023-04-27T23:07:38.335Z,19.63
2023-04-27T23:10:05.135Z,19.57
2023-04-27T23:12:31.907Z,19.48
2023-04-27T23:14:58.962Z,19.48
2023-04-27T23:17:26.089Z,19.39
2023-04-27T23:19:52.631Z,19.42
2023-04-27T23:22:19.121Z,19.46
2023-04-27T23:24:45.610Z,19.31
2023-04-27T23:27:12.085Z,19.18
2023-04-27T23:29:38.579Z,19.20
2023-04-27T23:32:05.499Z,19.32
2023-04-27T23:34:32.100Z,19.32
2023-04-27T23:36:58.850Z,19.38
2023-04-27T23:39:25.338Z,19.43
2023-04-27T23:41:51.933Z,19.45
2023-04-27T23:44:18.415Z,19.43
2023-04-27T23:46:44.937Z,19.39
2023-04-27T23:49:11.426Z,19.31
2023-04-27T23:51:37.881Z,19.38
2023-04-27T23:54:04.625Z,19.45
2023-04-27T23:56:31.119Z,19.47
2023-04-27T23:58:57.616Z,19.50
